Time;durP1;ratioP1;P1;durP2;ratioP2;P2;SDS_P1;SDS_P2;PMS_P1;PMS_P2;Temp;Humidity;BMP_temperature;BMP_pressure;BME280_temperature;BME280_humidity;BME280_pressure;Samples;Min_cycle;Max_cycle;Signal;HPM_P1;HPM_P2
2023/07/27 00:00:06;;;;;;;3.70;2.90;;;;;;;20.68;59.12;100975.34;5001647;28;20038;-52
2023/07/27 00:02:32;;;;;;;3.50;3.20;;;;;;;20.66;59.33;100970.09;5003452;28;20034;-53
2023/07/27 00:04:58;;;;;;;4.32;3.42;;;;;;;20.66;59.27;100967.41;4999615;28;20057;-53
2023/07/27 00:07:26;;;;;;;4.25;3.28;;;;;;;20.65;59.20;100960.28;4998361;28;20069;-53
2023/07/27 00:09:51;;;;;;;6.30;3.72;;;;;;;20.65;58.97;100957.56;5006575;28;20033;-53
2023/07/27 00:12:17;;;;;;;5.88;3.33;;;;;;;20.66;58.75;100961.97;4997024;28;20048;-53
2023/07/27 00:14:42;;;;;;;3.83;3.17;;;;;;;20.66;59.07;100961.16;5000838;28;20118;-53
2023/07/27 00:17:08;;;;;;;4.07;2.50;;;;;;;20.64;58.99;100953.19;5000689;28;20042;-52
2023/07/27 00:19:33;;;;;;;5.10;3.58;;;;;;;20.64;58.77;100955.88;5000370;28;20485;-53
2023/07/27 00:21:59;;;;;;;5.78;3.55;;;;;;;20.64;58.72;100953.19;4981263;28;20388;-52
2023/07/27 00:24:24;;;;;;;4.55;3.30;;;;;;;20.63;59.14;100948.75;4998985;28;20022;-53
2023/07/27 00:26:49;;;;;;;5.43;3.65;;;;;;;20.64;59.17;100942.34;5004285;28;20041;-53
2023/07/27 00:29:15;;;;;;;5.88;3.60;;;;;;;20.63;59.35;100947.94;4998059;28;21323;-53
2023/07/27 00:31:40;;;;;;;3.92;3.15;;;;;;;20.62;58.92;100938.97;5001016;28;20034;-52
2023/07/27 00:34:05;;;;;;;5.30;3.15;;;;;;;20.63;59.30;100940.66;5002065;28;20052;-53
2023/07/27 00:36:31;;;;;;;3.25;2.83;;;;;;;20.62;59.40;100944.38;4998556;28;20455;-53
2023/07/27 00:38:56;;;;;;;5.90;3.65;;;;;;;20.61;59.63;100939.97;5002261;28;20061;-53
2023/07/27 00:41:22;;;;;;;4.40;2.97;;;;;;;20.61;59.28;100937.25;5002170;28;20029;-53
2023/07/27 00:43:47;;;;;;;6.13;3.30;;;;;;;20.60;59.18;100935.59;5000458;28;20431;-53
2023/07/27 00:46:12;;;;;;;3.88;3.42;;;;;;;20.61;59.64;100926.44;5003107;28;20091;-53
2023/07/27 00:48:41;;;;;;;4.28;3.15;;;;;;;20.60;59.51;100926.59;4999583;28;20468;-53
2023/07/27 00:51:09;;;;;;;4.80;3.08;;;;;;;20.60;59.50;100923.88;4999968;28;20042;-52
2023/07/27 00:53:35;;;;;;;3.85;3.00;;;;;;;20.59;59.82;100917.59;4998050;28;20026;-52
2023/07/27 00:56:01;;;;;;;4.95;3.60;;;;;;;20.59;59.53;100914.06;4998605;28;20045;-52
2023/07/27 00:58:27;;;;;;;5.13;3.28;;;;;;;20.59;59.95;100914.06;4999705;28;20357;-53
2023/07/27 01:00:53;;;;;;;5.53;3.53;;;;;;;20.58;59.95;100910.53;4998400;28;20038;-52
2023/07/27 01:03:19;;;;;;;5.10;3.50;;;;;;;20.58;60.09;100902.41;5002769;28;20034;-52
2023/07/27 01:05:44;;;;;;;7.32;3.58;;;;;;;20.58;60.00;100901.53;4997863;28;20041;-52
2023/07/27 01:08:10;;;;;;;5.95;3.45;;;;;;;20.59;59.87;100892.41;5004370;28;20026;-53
2023/07/27 01:11:10;;;;;;;5.82;3.17;;;;;;;20.59;59.77;100879.72;5000472;28;20033;-53
2023/07/27 01:13:48;;;;;;;4.13;3.50;;;;;;;20.59;59.82;100882.44;4998610;28;20543;-52
2023/07/27 01:16:22;;;;;;;5.22;3.58;;;;;;;20.57;60.01;100873.63;4999065;28;20030;-50
2023/07/27 01:19:08;;;;;;;4.57;2.92;;;;;;;20.57;59.94;100870.94;4993919;28;20113;-51
2023/07/27 01:21:42;;;;;;;4.78;3.72;;;;;;;20.57;59.73;100873.63;5003287;28;20490;-51
2023/07/27 01:24:24;;;;;;;5.53;3.60;;;;;;;20.56;59.79;100876.50;5002661;28;20025;-52
2023/07/27 01:27:07;;;;;;;3.85;3.05;;;;;;;20.58;59.98;100866.38;4998888;28;20048;-51
2023/07/27 01:29:32;;;;;;;5.43;3.50;;;;;;;20.56;60.17;100862.97;4994377;28;20608;-51
2023/07/27 01:31:59;;;;;;;7.35;3.53;;;;;;;20.54;59.99;100863.13;4999928;28;20109;-52
2023/07/27 01:34:32;;;;;;;5.00;3.47;;;;;;;20.54;59.96;100860.44;4995721;28;20046;-49
2023/07/27 01:37:01;;;;;;;6.70;3.75;;;;;;;20.52;59.92;100851.63;4999385;28;20113;-53
2023/07/27 01:39:30;;;;;;;4.20;3.25;;;;;;;20.53;60.54;100853.34;5001814;28;20388;-51
2023/07/27 01:41:56;;;;;;;4.32;3.40;;;;;;;20.53;60.62;100852.50;4998784;28;20034;-51
2023/07/27 01:44:25;;;;;;;4.78;3.47;;;;;;;20.52;60.37;100846.22;4997611;28;20468;-50
2023/07/27 01:46:52;;;;;;;4.45;3.15;;;;;;;20.51;60.66;100844.53;5002871;28;20468;-51
2023/07/27 01:49:19;;;;;;;6.15;3.40;;;;;;;20.52;60.25;100838.09;4997769;28;20030;-50
2023/07/27 01:51:46;;;;;;;5.47;3.67;;;;;;;20.51;60.38;100836.44;4995851;28;20484;-50
2023/07/27 01:54:13;;;;;;;5.18;3.38;;;;;;;20.51;60.64;100828.31;5000736;28;20618;-50
2023/07/27 01:56:40;;;;;;;5.05;3.83;;;;;;;20.51;60.75;100822.91;4998691;28;20555;-51
2023/07/27 01:59:06;;;;;;;6.88;3.17;;;;;;;20.51;60.72;100831.03;4998092;28;20033;-50
2023/07/27 02:01:32;;;;;;;4.75;3.22;;;;;;;20.51;60.47;100820.19;5003180;28;20403;-51
2023/07/27 02:03:58;;;;;;;5.10;3.45;;;;;;;20.51;60.47;100818.34;5000014;28;20034;-51
2023/07/27 02:06:24;;;;;;;3.90;3.33;;;;;;;20.50;60.46;100816.66;4996442;28;20113;-52
2023/07/27 02:08:49;;;;;;;6.35;3.35;;;;;;;20.50;60.39;100802.25;4998612;28;20489;-51
2023/07/27 02:11:18;;;;;;;5.20;3.20;;;;;;;20.49;60.51;100797.88;4998415;28;20026;-52
2023/07/27 02:13:56;;;;;;;4.75;3.20;;;;;;;20.49;60.46;100795.19;4997734;28;20132;-51
2023/07/27 02:16:36;;;;;;;4.38;3.42;;;;;;;20.50;60.29;100786.03;4999603;28;20494;-50
2023/07/27 02:19:03;;;;;;;8.30;3.75;;;;;;;20.50;60.99;100786.03;4998712;28;20021;-50
2023/07/27 02:21:30;;;;;;;5.45;3.08;;;;;;;20.48;60.60;100763.72;4994527;28;20029;-50
2023/07/27 02:23:57;;;;;;;7.07;3.40;;;;;;;20.48;61.08;100769.97;4999377;28;20044;-50
2023/07/27 02:26:23;;;;;;;4.32;2.95;;;;;;;20.49;60.97;100757.31;4994088;28;20480;-51
2023/07/27 02:28:48;;;;;;;6.85;3.60;;;;;;;20.48;60.73;100756.44;4999248;28;20121;-48
2023/07/27 02:31:14;;;;;;;6.78;3.53;;;;;;;20.48;61.10;100759.16;5000436;28;20392;-51
2023/07/27 02:33:39;;;;;;;4.35;2.90;;;;;;;20.48;61.00;100753.75;5001588;28;20045;-51
2023/07/27 02:36:04;;;;;;;5.57;3.53;;;;;;;20.48;60.92;100752.91;4999051;28;20030;-48
2023/07/27 02:38:31;;;;;;;5.32;3.33;;;;;;;20.47;60.98;100756.63;4991900;28;20034;-50
2023/07/27 02:40:56;;;;;;;6.85;3.67;;;;;;;20.46;61.27;100744.94;4999688;28;20041;-51
2023/07/27 02:43:21;;;;;;;6.95;3.17;;;;;;;20.47;61.15;100741.25;4991850;28;20030;-49
2023/07/27 02:45:47;;;;;;;4.05;3.30;;;;;;;20.46;60.85;100727.88;4998950;28;20511;-50
2023/07/27 02:48:12;;;;;;;6.32;3.65;;;;;;;20.47;61.13;100726.88;4999598;28;20038;-50
2023/07/27 02:50:38;;;;;;;5.07;3.42;;;;;;;20.46;61.23;100717.91;4998034;28;20042;-48
2023/07/27 02:53:03;;;;;;;5.80;3.42;;;;;;;20.44;61.13;100729.91;4998334;28;20029;-48
2023/07/27 02:55:28;;;;;;;6.35;3.08;;;;;;;20.46;60.86;100725.19;5001535;28;20041;-49
2023/07/27 02:57:54;;;;;;;7.35;3.58;;;;;;;20.46;60.79;100722.47;4997389;28;20034;-52
2023/07/27 03:00:19;;;;;;;5.20;3.45;;;;;;;20.44;61.35;100716.38;4994139;28;20034;-47
2023/07/27 03:02:44;;;;;;;6.00;3.58;;;;;;;20.45;61.04;100723.50;5000316;28;20033;-48
2023/07/27 03:05:10;;;;;;;3.95;3.10;;;;;;;20.44;61.12;100714.53;4997000;28;20058;-52
2023/07/27 03:07:35;;;;;;;4.65;3.33;;;;;;;20.44;61.22;100702.88;4998266;28;20027;-49
2023/07/27 03:10:00;;;;;;;4.93;2.97;;;;;;;20.44;61.70;100708.28;4999998;28;20452;-51
2023/07/27 03:12:26;;;;;;;5.35;3.03;;;;;;;20.44;61.01;100703.69;4994838;28;20034;-49
2023/07/27 03:14:51;;;;;;;5.25;3.40;;;;;;;20.45;61.00;100701.88;4997850;28;20031;-51
2023/07/27 03:17:16;;;;;;;5.00;2.60;;;;;;;20.46;61.23;100690.00;5000367;28;20035;-52
2023/07/27 03:19:42;;;;;;;5.10;3.40;;;;;;;20.47;61.20;100676.34;4997342;28;20034;-51
2023/07/27 03:22:07;;;;;;;3.92;3.30;;;;;;;20.47;61.38;100670.94;4996074;28;20045;-50
2023/07/27 03:24:33;;;;;;;6.53;3.53;;;;;;;20.47;61.13;100670.94;5000482;28;20096;-49
2023/07/27 03:26:58;;;;;;;5.30;3.15;;;;;;;20.48;61.06;100663.66;4999275;28;20108;-51
2023/07/27 03:29:24;;;;;;;3.63;2.80;;;;;;;20.47;61.17;100659.28;4995241;28;20041;-51
2023/07/27 03:31:49;;;;;;;4.03;2.75;;;;;;;20.46;61.42;100647.59;4999275;28;20172;-50
2023/07/27 03:34:14;;;;;;;7.22;3.13;;;;;;;20.48;61.05;100636.59;4995575;28;20051;-51
2023/07/27 03:36:40;;;;;;;6.68;2.85;;;;;;;20.48;61.35;100625.78;4996312;28;20045;-51
2023/07/27 03:39:05;;;;;;;4.72;3.28;;;;;;;20.48;61.30;100615.81;5000630;28;20037;-52
2023/07/27 03:41:31;;;;;;;4.28;3.03;;;;;;;20.49;61.21;100608.56;4997739;28;20490;-49
2023/07/27 03:43:56;;;;;;;3.65;2.90;;;;;;;20.48;60.93;100604.97;4998869;28;20131;-49
2023/07/27 03:46:21;;;;;;;5.05;3.38;;;;;;;20.48;61.36;100601.44;5001466;28;20034;-52
2023/07/27 03:48:48;;;;;;;4.85;3.28;;;;;;;20.49;61.18;100592.31;4996675;28;20042;-48
2023/07/27 03:51:13;;;;;;;3.85;2.53;;;;;;;20.48;61.36;100596.88;4996572;28;20048;-52
2023/07/27 03:53:39;;;;;;;5.68;3.17;;;;;;;20.49;61.44;100595.88;4999890;28;20446;-50
2023/07/27 03:56:05;;;;;;;3.15;2.85;;;;;;;20.48;61.39;100601.44;4998359;28;20026;-51
2023/07/27 03:58:31;;;;;;;3.95;2.90;;;;;;;20.47;61.37;100588.94;5000613;28;20026;-50
2023/07/27 04:00:57;;;;;;;5.18;2.90;;;;;;;20.47;61.45;100588.94;4998175;28;20392;-53
2023/07/27 04:03:22;;;;;;;4.80;3.00;;;;;;;20.46;61.40;100588.09;4999149;28;20056;-51
2023/07/27 04:05:47;;;;;;;3.60;2.75;;;;;;;20.47;61.31;100578.13;4995614;28;20038;-52
2023/07/27 04:08:13;;;;;;;6.18;2.92;;;;;;;20.46;61.10;100588.09;4998707;28;20543;-51
2023/07/27 04:10:41;;;;;;;4.53;3.10;;;;;;;20.47;61.12;100578.13;4995887;28;20065;-50
2023/07/27 04:13:07;;;;;;;3.47;3.08;;;;;;;20.46;61.18;100579.13;4994830;28;20056;-48
2023/07/27 04:15:33;;;;;;;4.82;3.08;;;;;;;20.47;61.39;100575.44;4999027;28;20464;-50
2023/07/27 04:17:58;;;;;;;4.68;3.40;;;;;;;20.46;61.61;100571.84;4996786;28;20384;-51
2023/07/27 04:20:24;;;;;;;3.78;2.95;;;;;;;20.46;61.70;100571.84;4997673;28;20044;-52
2023/07/27 04:22:49;;;;;;;4.82;2.75;;;;;;;20.46;61.59;100562.91;4991285;28;20113;-48
2023/07/27 04:25:15;;;;;;;3.75;2.90;;;;;;;20.47;61.51;100559.19;4994004;28;20529;-51
2023/07/27 04:27:40;;;;;;;4.25;3.40;;;;;;;20.47;61.51;100553.78;4994342;28;20046;-50
2023/07/27 04:30:07;;;;;;;3.13;2.78;;;;;;;20.44;61.51;100544.13;4996208;28;20096;-50
2023/07/27 04:32:32;;;;;;;4.43;2.78;;;;;;;20.46;61.63;100538.56;5001240;28;20037;-51
2023/07/27 04:34:58;;;;;;;4.47;2.92;;;;;;;20.46;61.32;100536.69;4999474;28;20069;-50
2023/07/27 04:37:23;;;;;;;3.28;2.65;;;;;;;20.47;61.50;100540.28;5003384;28;20035;-51
2023/07/27 04:39:48;;;;;;;3.38;2.55;;;;;;;20.47;61.36;100532.16;4999851;28;20153;-50
2023/07/27 04:42:14;;;;;;;3.75;2.50;;;;;;;20.46;61.40;100534.00;5001408;28;20042;-48
2023/07/27 04:44:39;;;;;;;3.58;2.55;;;;;;;20.46;61.44;100527.75;4999922;28;20065;-49
2023/07/27 04:47:05;;;;;;;3.65;2.50;;;;;;;20.44;61.21;100518.97;5001180;28;20403;-49
2023/07/27 04:49:30;;;;;;;4.13;2.88;;;;;;;20.45;61.39;100515.25;4999646;28;20049;-48
2023/07/27 04:51:55;;;;;;;3.45;2.65;;;;;;;20.43;61.84;100514.59;4999146;28;20035;-52
2023/07/27 04:54:21;;;;;;;4.38;2.38;;;;;;;20.44;61.89;100513.56;5001082;28;20045;-50
2023/07/27 04:56:46;;;;;;;3.55;2.30;;;;;;;20.45;61.79;100509.84;5001461;28;20050;-49
2023/07/27 04:59:11;;;;;;;4.28;2.30;;;;;;;20.44;61.22;100513.56;5001761;28;20058;-51
2023/07/27 05:01:37;;;;;;;3.45;2.53;;;;;;;20.42;61.42;100505.59;5000815;28;20080;-47
2023/07/27 05:04:02;;;;;;;4.10;2.03;;;;;;;20.44;61.76;100510.84;4997596;28;20056;-51
2023/07/27 05:06:28;;;;;;;3.33;2.30;;;;;;;20.43;61.99;100506.47;5000498;28;20515;-50
2023/07/27 05:08:53;;;;;;;3.80;2.10;;;;;;;20.42;61.67;100502.91;5002125;28;20042;-47
2023/07/27 05:11:18;;;;;;;4.32;2.30;;;;;;;20.43;61.67;100493.78;4998334;28;20027;-48
2023/07/27 05:13:44;;;;;;;2.97;2.20;;;;;;;20.42;61.65;100496.66;5000459;28;20062;-51
2023/07/27 05:16:09;;;;;;;3.33;1.90;;;;;;;20.42;62.13;100483.13;5001550;28;20062;-52
2023/07/27 05:18:34;;;;;;;3.22;2.10;;;;;;;20.42;61.86;100488.53;5000742;28;20037;-49
2023/07/27 05:21:00;;;;;;;2.65;2.00;;;;;;;20.41;62.27;100481.44;5004364;28;20026;-51
2023/07/27 05:23:26;;;;;;;1.90;1.70;;;;;;;20.42;61.71;100481.28;4990551;28;20035;-49
2023/07/27 05:25:52;;;;;;;1.88;1.70;;;;;;;20.42;62.16;100475.03;5000927;28;20117;-50
2023/07/27 05:28:17;;;;;;;2.38;1.80;;;;;;;20.42;62.15;100472.31;4997891;28;20117;-51
2023/07/27 05:30:43;;;;;;;2.92;2.13;;;;;;;20.41;61.65;100468.78;5000766;28;20088;-49
2023/07/27 05:33:08;;;;;;;1.98;1.77;;;;;;;20.41;62.17;100470.63;4996931;28;20076;-51
2023/07/27 05:35:34;;;;;;;2.42;1.70;;;;;;;20.43;62.27;100468.63;5000028;28;20042;-51
2023/07/27 05:37:59;;;;;;;1.90;1.60;;;;;;;20.41;62.38;100466.06;5001111;28;20511;-51
2023/07/27 05:40:25;;;;;;;3.10;1.98;;;;;;;20.42;61.85;100470.44;5000158;28;20034;-49
2023/07/27 05:42:50;;;;;;;1.98;1.73;;;;;;;20.42;62.31;100467.75;5003465;28;20037;-49
2023/07/27 05:45:15;;;;;;;2.42;1.70;;;;;;;20.41;62.51;100459.81;4997987;28;20114;-52
2023/07/27 05:47:41;;;;;;;2.58;1.77;;;;;;;20.42;62.45;100461.50;4998903;28;20037;-50
2023/07/27 05:50:07;;;;;;;2.05;1.60;;;;;;;20.42;62.66;100453.38;4997077;28;20057;-51
2023/07/27 05:52:32;;;;;;;1.85;1.70;;;;;;;20.41;62.81;100448.97;5002069;28;20034;-48
2023/07/27 05:54:58;;;;;;;1.67;1.38;;;;;;;20.41;62.76;100455.25;5001067;28;20451;-49
2023/07/27 05:57:24;;;;;;;1.58;1.45;;;;;;;20.41;62.79;100454.38;4994208;28;20053;-47
2023/07/27 05:59:49;;;;;;;1.80;1.42;;;;;;;20.40;62.35;100450.84;4997070;28;20487;-48
2023/07/27 06:02:15;;;;;;;1.60;1.33;;;;;;;20.40;63.03;100445.44;4997454;28;20072;-50
2023/07/27 06:04:40;;;;;;;1.80;1.35;;;;;;;20.40;62.93;100441.91;4996016;28;20117;-50
2023/07/27 06:07:06;;;;;;;2.80;1.35;;;;;;;20.41;62.88;100446.28;5000751;28;20033;-49
2023/07/27 06:09:31;;;;;;;2.05;1.50;;;;;;;20.41;63.38;100438.16;4997861;28;20558;-48
2023/07/27 06:11:57;;;;;;;3.25;1.85;;;;;;;20.41;63.73;100444.44;4997202;28;20066;-52
2023/07/27 06:14:23;;;;;;;2.78;1.80;;;;;;;20.40;63.41;100444.59;4995953;28;20030;-50
2023/07/27 06:16:48;;;;;;;2.22;1.67;;;;;;;20.42;63.34;100445.28;4994172;28;20033;-48
2023/07/27 06:19:14;;;;;;;1.73;1.50;;;;;;;20.42;63.33;100445.28;5000399;28;20033;-49
2023/07/27 06:21:39;;;;;;;1.90;1.80;;;;;;;20.41;63.92;100430.06;4995835;28;20077;-47
2023/07/27 06:24:05;;;;;;;1.55;1.40;;;;;;;20.40;63.77;100440.03;4996403;28;20109;-53
2023/07/27 06:26:30;;;;;;;1.83;1.60;;;;;;;20.41;63.44;100433.63;4997962;28;20036;-52
2023/07/27 06:28:57;;;;;;;1.80;1.48;;;;;;;20.41;63.56;100430.91;5000898;28;20480;-50
2023/07/27 06:31:22;;;;;;;1.20;1.10;;;;;;;20.39;64.30;100429.38;4994643;28;20455;-51
2023/07/27 06:33:48;;;;;;;2.83;1.33;;;;;;;20.40;64.21;100431.91;4993699;28;20113;-49
2023/07/27 06:36:14;;;;;;;1.25;1.15;;;;;;;20.41;64.07;100419.22;4995555;28;20030;-51
2023/07/27 06:38:39;;;;;;;3.22;1.35;;;;;;;20.41;63.94;100420.09;5000639;28;20062;-51
2023/07/27 06:41:05;;;;;;;2.33;1.33;;;;;;;20.41;64.07;100416.53;4990443;28;20113;-47
2023/07/27 06:43:30;;;;;;;2.08;1.33;;;;;;;20.42;64.17;100412.81;5001835;28;20117;-51
2023/07/27 06:45:56;;;;;;;1.73;1.20;;;;;;;20.41;64.53;100416.53;4996899;28;20077;-51
2023/07/27 06:48:22;;;;;;;1.90;1.40;;;;;;;20.41;64.52;100417.41;4996252;28;20084;-50
2023/07/27 06:50:47;;;;;;;3.88;1.10;;;;;;;20.40;65.11;100409.47;4999262;28;20051;-51
2023/07/27 06:53:12;;;;;;;1.20;1.00;;;;;;;20.38;64.88;100415.03;4997840;28;20107;-52
2023/07/27 06:55:38;;;;;;;1.75;1.00;;;;;;;20.39;65.29;100418.56;4997721;28;20084;-50
2023/07/27 06:58:03;;;;;;;1.23;1.10;;;;;;;20.37;65.49;100421.47;4998775;28;20041;-51
2023/07/27 07:00:29;;;;;;;2.78;1.15;;;;;;;20.38;65.01;100414.19;4996981;28;20076;-50
2023/07/27 07:02:55;;;;;;;1.70;1.00;;;;;;;20.39;65.24;100407.75;4997527;28;20038;-50
2023/07/27 07:05:20;;;;;;;1.98;1.00;;;;;;;20.39;64.43;100415.88;4999896;28;20025;-49
2023/07/27 07:07:46;;;;;;;1.23;0.90;;;;;;;20.40;65.00;100414.88;4995061;28;20069;-51
2023/07/27 07:10:11;;;;;;;1.67;1.30;;;;;;;20.39;65.02;100414.03;4996464;28;20472;-52
2023/07/27 07:12:38;;;;;;;1.02;0.90;;;;;;;20.40;64.43;100409.47;4997198;28;20045;-52
2023/07/27 07:15:04;;;;;;;1.35;1.20;;;;;;;20.40;65.01;100414.88;4992700;28;20563;-51
2023/07/27 07:17:29;;;;;;;1.55;1.10;;;;;;;20.40;65.00;100421.09;4997009;28;20041;-48
2023/07/27 07:19:56;;;;;;;1.02;0.93;;;;;;;20.42;65.00;100412.81;4993679;28;20113;-51
2023/07/27 07:22:22;;;;;;;2.17;1.40;;;;;;;20.40;65.24;100422.97;4995148;28;20038;-51
2023/07/27 07:24:47;;;;;;;1.27;1.17;;;;;;;20.41;65.10;100416.53;4997236;28;20037;-49
2023/07/27 07:27:12;;;;;;;1.92;1.20;;;;;;;20.41;64.61;100416.53;5000144;28;20021;-49
2023/07/27 07:29:38;;;;;;;1.40;1.00;;;;;;;20.41;64.13;100417.41;4995805;28;20037;-51
2023/07/27 07:32:03;;;;;;;1.42;1.05;;;;;;;20.42;64.03;100415.53;4996240;28;20487;-50
2023/07/27 07:34:30;;;;;;;2.70;0.77;;;;;;;20.42;64.07;100410.13;4999339;28;20181;-49
2023/07/27 07:36:58;;;;;;;0.90;0.90;;;;;;;20.43;63.89;100409.13;4996958;28;20038;-49
2023/07/27 07:39:23;;;;;;;0.90;0.90;;;;;;;20.43;63.41;100409.13;4999491;28;20875;-50
2023/07/27 07:41:48;;;;;;;1.17;0.98;;;;;;;20.43;63.45;100393.72;4995088;28;20042;-49
2023/07/27 07:44:14;;;;;;;1.25;0.85;;;;;;;20.43;63.11;100392.91;4998650;28;20027;-47
2023/07/27 07:46:40;;;;;;;1.65;1.27;;;;;;;20.44;63.06;100389.16;4994577;28;20077;-49
2023/07/27 07:49:06;;;;;;;1.77;1.10;;;;;;;20.44;62.81;100389.16;4997058;28;20030;-50
2023/07/27 07:51:31;;;;;;;1.20;1.10;;;;;;;20.44;62.73;100394.56;4997606;28;20076;-51
2023/07/27 07:53:56;;;;;;;2.17;0.80;;;;;;;20.44;62.76;100389.16;4996467;28;20066;-49
2023/07/27 07:56:22;;;;;;;1.90;1.00;;;;;;;20.46;62.71;100393.38;4997846;28;20038;-48
2023/07/27 07:58:47;;;;;;;1.35;1.20;;;;;;;20.46;62.61;100392.53;4991803;28;20484;-52
2023/07/27 08:01:13;;;;;;;1.05;0.90;;;;;;;20.46;62.76;100393.38;5000919;28;20034;-52
2023/07/27 08:03:38;;;;;;;2.00;1.00;;;;;;;20.47;62.75;100386.13;4998739;28;20636;-48
2023/07/27 08:06:03;;;;;;;1.70;0.77;;;;;;;20.46;62.35;100392.53;5004426;28;20108;-48
2023/07/27 08:08:29;;;;;;;1.00;0.90;;;;;;;20.46;62.47;100390.66;4998457;28;20040;-50
2023/07/27 08:11:00;;;;;;;0.90;0.90;;;;;;;20.46;62.53;100390.66;5003378;28;20030;-48
2023/07/27 08:13:26;;;;;;;0.68;0.68;;;;;;;20.47;62.44;100388.81;5005038;28;20026;-50
2023/07/27 08:15:54;;;;;;;1.27;1.13;;;;;;;20.47;62.37;100383.41;5000118;28;20038;-47
2023/07/27 08:18:20;;;;;;;1.58;0.70;;;;;;;20.46;62.15;100385.25;5002988;28;20076;-46
2023/07/27 08:21:04;;;;;;;1.10;0.93;;;;;;;20.49;61.81;100392.19;5002346;28;20467;-50
2023/07/27 08:23:29;;;;;;;1.60;1.10;;;;;;;20.48;62.31;100391.31;5006441;28;20026;-49
2023/07/27 08:25:59;;;;;;;0.75;0.68;;;;;;;20.49;62.28;100381.38;5000882;28;20373;-49
2023/07/27 08:28:25;;;;;;;2.22;1.20;;;;;;;20.50;61.90;100383.03;5001501;28;20088;-48
2023/07/27 08:30:51;;;;;;;0.90;0.90;;;;;;;20.50;61.85;100380.34;5003936;28;20041;-50
2023/07/27 08:33:16;;;;;;;1.00;0.85;;;;;;;20.50;61.73;100380.34;5000015;28;20489;-49
2023/07/27 08:35:43;;;;;;;0.95;0.85;;;;;;;20.50;62.23;100383.03;5001183;28;20054;-47
2023/07/27 08:38:08;;;;;;;1.02;0.93;;;;;;;20.50;62.11;100383.03;4999737;28;20286;-48
2023/07/27 08:40:34;;;;;;;0.73;0.70;;;;;;;20.51;61.91;100379.34;5004209;28;20034;-51
2023/07/27 08:43:05;;;;;;;1.85;0.93;;;;;;;20.51;61.64;100376.63;5001812;28;20037;-46
2023/07/27 08:45:30;;;;;;;;;;;;;;;20.59;61.81;100378.47;5000757;28;20129;-46
2023/07/27 08:47:57;;;;;;;0.75;0.65;;;;;;;20.54;61.64;100372.72;5001121;28;20007;-47
2023/07/27 08:50:22;;;;;;;0.93;0.93;;;;;;;20.54;61.69;100370.03;4998364;28;20083;-49
2023/07/27 08:52:48;;;;;;;0.80;0.80;;;;;;;20.55;62.22;100371.72;5003898;28;20113;-51
2023/07/27 08:55:13;;;;;;;1.60;0.80;;;;;;;20.54;62.12;100368.16;5001220;28;20089;-48
2023/07/27 08:57:39;;;;;;;1.00;0.90;;;;;;;20.54;61.72;100367.31;5005497;28;20065;-49
2023/07/27 09:00:05;;;;;;;0.70;0.70;;;;;;;20.54;61.84;100370.03;5001213;28;20062;-51
2023/07/27 09:02:30;;;;;;;0.98;0.90;;;;;;;20.54;62.01;100384.38;4999060;28;20487;-47
2023/07/27 09:04:56;;;;;;;0.88;0.73;;;;;;;20.56;61.89;100376.09;5001744;28;20034;-48
2023/07/27 09:07:21;;;;;;;1.52;0.88;;;;;;;20.55;62.01;100369.84;4998041;28;20448;-48
2023/07/27 09:09:53;;;;;;;1.13;0.90;;;;;;;20.56;62.40;100367.97;5000453;28;20030;-48
2023/07/27 09:12:22;;;;;;;1.15;1.00;;;;;;;20.56;61.99;100374.25;4997774;28;20073;-48
2023/07/27 09:14:47;;;;;;;0.70;0.70;;;;;;;20.57;62.11;100372.38;4999705;28;20054;-48
2023/07/27 09:17:13;;;;;;;0.77;0.68;;;;;;;20.57;62.04;100373.22;5002860;28;20063;-49
2023/07/27 09:19:40;;;;;;;0.88;0.70;;;;;;;20.58;62.42;100371.34;4999296;28;20373;-50
2023/07/27 09:22:07;;;;;;;1.42;0.95;;;;;;;20.57;62.21;100367.81;5001456;28;20523;-48
2023/07/27 09:24:33;;;;;;;0.70;0.70;;;;;;;20.57;62.21;100373.22;5001006;28;20031;-48
2023/07/27 09:26:59;;;;;;;0.90;0.70;;;;;;;20.58;61.99;100379.47;5003054;28;20045;-50
2023/07/27 09:29:25;;;;;;;1.17;0.77;;;;;;;20.58;62.31;100374.94;4998947;28;20125;-52
2023/07/27 09:31:57;;;;;;;1.55;0.70;;;;;;;20.58;62.38;100366.81;4997497;28;20062;-50
2023/07/27 09:34:22;;;;;;;0.80;0.75;;;;;;;20.60;62.29;100372.06;4994765;28;20062;-48
2023/07/27 09:36:48;;;;;;;0.80;0.70;;;;;;;20.60;62.87;100363.94;4996719;28;20396;-48
2023/07/27 09:39:15;;;;;;;0.90;0.82;;;;;;;20.60;62.63;100372.91;5000030;28;20030;-48
2023/07/27 09:41:43;;;;;;;0.77;0.70;;;;;;;20.60;62.80;100362.09;4998193;28;20077;-50
2023/07/27 09:44:15;;;;;;;0.60;0.60;;;;;;;20.62;62.73;100365.47;5002052;28;20048;-49
2023/07/27 09:46:42;;;;;;;0.75;0.73;;;;;;;20.62;62.28;100361.91;4997010;28;20034;-46
2023/07/27 09:49:07;;;;;;;0.63;0.63;;;;;;;20.62;62.79;100354.66;4999535;28;20037;-49
2023/07/27 09:51:34;;;;;;;0.95;0.90;;;;;;;20.62;62.45;100354.66;4999206;28;20666;-48
2023/07/27 09:54:00;;;;;;;0.68;0.68;;;;;;;20.61;62.55;100361.06;5001180;28;20504;-48
2023/07/27 09:56:27;;;;;;;1.88;1.05;;;;;;;20.62;62.61;100368.16;4999411;28;20592;-48
2023/07/27 09:58:53;;;;;;;0.98;0.65;;;;;;;20.62;62.83;100367.31;4996744;28;20108;-52
2023/07/27 10:01:18;;;;;;;0.85;0.70;;;;;;;20.62;62.85;100362.75;5002326;28;20030;-48
2023/07/27 10:03:45;;;;;;;0.60;0.60;;;;;;;20.64;62.47;100368.00;4999373;28;20081;-47
2023/07/27 10:06:12;;;;;;;0.65;0.65;;;;;;;20.64;62.78;100362.59;5003841;28;20105;-47
2023/07/27 10:08:37;;;;;;;1.23;0.68;;;;;;;20.64;62.51;100368.84;5000178;28;20030;-51
2023/07/27 10:11:03;;;;;;;0.80;0.80;;;;;;;20.65;62.53;100380.50;5000901;28;20073;-52
2023/07/27 10:13:28;;;;;;;1.02;0.70;;;;;;;20.64;62.30;100368.84;5002769;28;20114;-51
2023/07/27 10:15:55;;;;;;;0.82;0.80;;;;;;;20.65;62.52;100364.25;5000590;28;20033;-47
2023/07/27 10:18:24;;;;;;;0.55;0.55;;;;;;;20.66;62.76;100371.38;5001125;28;20030;-49
2023/07/27 10:20:50;;;;;;;0.50;0.50;;;;;;;20.66;62.61;100358.69;4998776;28;20034;-48
2023/07/27 10:23:27;;;;;;;0.95;0.85;;;;;;;20.66;62.82;100364.09;5003711;28;20036;-49
2023/07/27 10:25:55;;;;;;;0.70;0.70;;;;;;;20.66;63.11;100369.50;4993647;28;20034;-50
2023/07/27 10:28:43;;;;;;;1.33;0.70;;;;;;;20.69;62.33;100366.47;5000181;28;20022;-48
2023/07/27 10:31:24;;;;;;;1.73;0.63;;;;;;;20.68;62.21;100364.75;4999674;28;20484;-48
2023/07/27 10:34:02;;;;;;;0.68;0.60;;;;;;;20.69;62.81;100371.88;4995339;28;20030;-49
2023/07/27 10:36:46;;;;;;;0.60;0.60;;;;;;;20.72;62.64;100369.81;5002628;28;20109;-50
2023/07/27 10:39:15;;;;;;;0.65;0.60;;;;;;;20.69;62.34;100366.47;4997254;28;20037;-50
2023/07/27 10:41:57;;;;;;;0.73;0.70;;;;;;;20.70;62.63;100368.13;4998109;28;20030;-46
2023/07/27 10:44:25;;;;;;;0.63;0.63;;;;;;;20.69;63.12;100366.47;4998437;28;20169;-49
2023/07/27 10:46:54;;;;;;;0.90;0.50;;;;;;;20.69;62.94;100371.88;4998366;28;20027;-50
2023/07/27 10:49:20;;;;;;;0.60;0.60;;;;;;;20.70;62.48;100367.28;5000212;28;20113;-48
2023/07/27 10:51:46;;;;;;;1.25;0.60;;;;;;;20.69;62.83;100366.47;5001134;28;20153;-48
2023/07/27 10:54:13;;;;;;;0.60;0.60;;;;;;;20.69;62.86;100374.56;4998384;28;20038;-49
2023/07/27 10:56:41;;;;;;;0.88;0.70;;;;;;;20.72;62.71;100369.81;4996609;28;20062;-49
2023/07/27 10:59:10;;;;;;;0.60;0.60;;;;;;;20.70;62.87;100368.13;4994829;28;20062;-48
2023/07/27 11:01:35;;;;;;;0.40;0.40;;;;;;;20.70;62.51;100362.72;5002166;28;20497;-48
2023/07/27 11:04:03;;;;;;;0.50;0.50;;;;;;;20.72;62.70;100372.53;4994218;28;20145;-49
2023/07/27 11:06:29;;;;;;;0.90;0.50;;;;;;;20.69;62.86;100366.47;5003557;28;20026;-50
2023/07/27 11:08:56;;;;;;;0.50;0.50;;;;;;;20.71;62.47;100379.78;4998010;28;20045;-48
2023/07/27 11:11:24;;;;;;;0.70;0.60;;;;;;;20.72;62.79;100372.53;4999588;28;20383;-47
2023/07/27 11:13:50;;;;;;;1.27;0.68;;;;;;;20.70;62.74;100373.53;4998158;28;20077;-50
2023/07/27 11:16:17;;;;;;;0.50;0.50;;;;;;;20.71;62.96;100368.97;4998829;28;20022;-47
2023/07/27 11:18:43;;;;;;;0.60;0.60;;;;;;;20.73;62.50;100368.78;4995333;28;20036;-51
2023/07/27 11:21:09;;;;;;;1.55;0.57;;;;;;;20.73;62.83;100361.50;4999112;28;20029;-48